Diana, Texas
Current Conditions -  °F | °C
As of 6:53 AM on Friday 19 Dec 2014 (Local Time) from KGGG Reporting Station
Moderate Rain Moderate Rain  
Wind Chill: 45°   Ceiling: 400
Heat Index: 48°   Visibility: 4mi
Dew Point: 45°   Wind: 7mph
Humidity: 89%   Direction: 10°N
Pressure: 30.15"   Gusts: NA
Location:  32.71°N, 94.75°W
Report Text: KGGG 191253Z 01006KT 4SM RA BR OVC004 09/07 A3015 RMK AO2 SLP211 P0008 T00890072
Loading
Personal Weather Stations






























Interactive Weather Map New forecast layout! Learn more

10-Day Weather Forecast

Advertisements
Track Severe Weather on mobile